Terminal Aerodrome Forecast
Issued by NWS Brownsville, TX

Home | Current Version | Previous Version | Text Only | Print | Product List | Glossary On
Versions: 1 2 3 4 5 6 7 8 9 10 11 12 13 14 15
000
FTUS44 KBRO 061722
TAFMFE
TAF
KMFE 061722Z 0618/0718 14010G16KT P6SM SKC
     FM070000 14008KT P6SM FEW250
     FM071500 15014G20KT P6SM BKN250=

USA.gov is the U.S. government's official web portal to all federal, state and local government web resources and services.